Time;durP1;ratioP1;P1;durP2;ratioP2;P2;SDS_P1;SDS_P2;PMS_P1;PMS_P2;Temp;Humidity;BMP_temperature;BMP_pressure;BME280_temperature;BME280_humidity;BME280_pressure;Samples;Min_cycle;Max_cycle;Signal;HPM_P1;HPM_P2
2021/06/05 00:00:17;;;;;;;8.50;6.00;;;21.70;66.90;;;;;;4991126;28;20026;-79
2021/06/05 00:02:43;;;;;;;12.88;6.32;;;21.60;67.10;;;;;;4991116;28;20111;-76
2021/06/05 00:05:09;;;;;;;7.55;6.20;;;21.60;67.30;;;;;;4990485;28;20026;-75
2021/06/05 00:07:35;;;;;;;6.63;6.03;;;21.70;67.20;;;;;;4990545;28;20038;-75
2021/06/05 00:10:03;;;;;;;10.90;5.68;;;21.70;67.00;;;;;;4990484;28;20475;-76
2021/06/05 00:12:30;;;;;;;8.85;6.20;;;21.70;67.20;;;;;;4991352;28;20382;-76
2021/06/05 00:14:55;;;;;;;8.35;5.57;;;21.60;67.10;;;;;;4989269;28;20412;-77
2021/06/05 00:17:24;;;;;;;9.57;6.38;;;21.60;67.40;;;;;;4991738;28;20058;-76
2021/06/05 00:19:49;;;;;;;10.02;6.22;;;21.60;67.60;;;;;;4990770;28;20565;-76
2021/06/05 00:22:15;;;;;;;9.98;5.97;;;21.70;67.50;;;;;;4990712;28;20129;-76
2021/06/05 00:24:42;;;;;;;8.55;5.82;;;21.70;67.20;;;;;;4990766;28;20478;-79
2021/06/05 00:27:09;;;;;;;7.00;5.68;;;21.70;67.10;;;;;;4990009;28;20061;-77
2021/06/05 00:29:35;;;;;;;8.07;6.10;;;21.70;67.00;;;;;;4989926;28;20033;-75
2021/06/05 00:32:01;;;;;;;14.15;6.38;;;21.70;67.10;;;;;;4990993;28;20030;-79
2021/06/05 00:34:26;;;;;;;9.85;5.72;;;21.70;66.90;;;;;;4990668;28;20042;-75
2021/06/05 00:36:52;;;;;;;12.00;6.43;;;21.80;66.50;;;;;;4990365;28;20495;-76
2021/06/05 00:39:18;;;;;;;14.25;6.13;;;21.80;67.00;;;;;;4991235;28;20382;-76
2021/06/05 00:41:44;;;;;;;9.15;5.88;;;21.80;66.50;;;;;;4990518;28;20031;-76
2021/06/05 00:44:12;;;;;;;9.77;6.75;;;21.80;66.40;;;;;;4990270;28;20023;-76
2021/06/05 00:46:39;;;;;;;7.60;5.97;;;21.80;66.30;;;;;;4990295;28;20079;-76
2021/06/05 00:49:06;;;;;;;14.80;7.20;;;21.70;66.50;;;;;;4990491;28;20018;-75
2021/06/05 00:51:35;;;;;;;8.05;5.75;;;21.70;66.60;;;;;;4989853;28;20022;-76
2021/06/05 00:54:02;;;;;;;12.95;5.80;;;21.60;66.60;;;;;;4990796;28;20501;-76
2021/06/05 00:56:28;;;;;;;11.15;6.22;;;21.60;66.80;;;;;;4990156;28;20073;-76
2021/06/05 00:58:53;;;;;;;13.90;7.20;;;21.50;67.30;;;;;;4988231;28;20023;-76
2021/06/05 01:01:23;;;;;;;12.55;6.43;;;21.50;67.80;;;;;;4987809;28;20494;-76
2021/06/05 01:03:51;;;;;;;9.73;6.53;;;21.50;67.50;;;;;;4988044;28;20057;-76
2021/06/05 01:06:25;;;;;;;8.25;6.63;;;21.40;67.20;;;;;;4989449;28;20019;-76
2021/06/05 01:09:04;;;;;;;8.93;6.00;;;21.40;67.20;;;;;;4990179;28;20030;-79
2021/06/05 01:11:35;;;;;;;7.05;5.93;;;21.30;66.80;;;;;;4989521;28;20502;-75
2021/06/05 01:14:22;;;;;;;12.55;6.05;;;21.30;67.10;;;;;;4989391;28;20033;-76
2021/06/05 01:16:52;;;;;;;9.73;6.15;;;21.30;67.30;;;;;;4989451;28;20030;-75
2021/06/05 01:19:23;;;;;;;11.68;6.55;;;21.30;67.10;;;;;;4990706;28;20351;-76
2021/06/05 01:21:57;;;;;;;8.38;6.28;;;21.30;67.10;;;;;;4989919;28;20546;-75
2021/06/05 01:24:29;;;;;;;6.70;5.70;;;21.20;67.20;;;;;;4990285;28;20030;-76
2021/06/05 01:27:02;;;;;;;10.75;5.53;;;21.30;67.70;;;;;;4989897;28;20019;-76
2021/06/05 01:29:38;;;;;;;5.90;5.30;;;21.20;68.00;;;;;;4989253;28;20487;-76
2021/06/05 01:32:07;;;;;;;7.15;4.85;;;21.20;68.20;;;;;;4990451;28;20041;-75
2021/06/05 01:34:39;;;;;;;6.22;5.20;;;21.20;68.30;;;;;;4989968;28;20027;-76
2021/06/05 01:37:07;;;;;;;8.07;5.47;;;21.20;68.60;;;;;;4989906;28;20376;-76
2021/06/05 01:39:35;;;;;;;9.63;5.78;;;21.20;68.60;;;;;;4989231;28;20386;-76
2021/06/05 01:42:06;;;;;;;9.13;5.75;;;21.20;68.40;;;;;;4988869;28;20537;-75
2021/06/05 01:44:34;;;;;;;7.72;5.82;;;21.20;68.50;;;;;;4990077;28;20045;-79
2021/06/05 01:47:00;;;;;;;8.52;5.75;;;21.20;68.70;;;;;;4989755;28;20030;-76
2021/06/05 01:49:25;;;;;;;6.88;6.15;;;21.20;68.50;;;;;;4989681;28;20027;-76
2021/06/05 01:52:01;;;;;;;5.93;5.25;;;21.20;68.70;;;;;;4989744;28;20018;-75
2021/06/05 01:54:39;;;;;;;7.63;5.30;;;21.10;68.60;;;;;;4989149;28;20035;-76
2021/06/05 01:57:15;;;;;;;7.68;4.68;;;21.10;68.40;;;;;;4989490;28;20482;-75
2021/06/05 01:59:41;;;;;;;8.20;5.47;;;21.10;68.60;;;;;;4989275;28;20096;-76
2021/06/05 02:02:08;;;;;;;5.88;5.18;;;21.10;68.50;;;;;;4989612;28;20443;-76
2021/06/05 02:04:34;;;;;;;11.45;5.50;;;21.10;69.00;;;;;;4989471;28;20042;-76
2021/06/05 02:07:00;;;;;;;8.13;5.50;;;21.10;69.30;;;;;;4989882;28;20025;-79
2021/06/05 02:09:27;;;;;;;11.00;5.43;;;21.10;69.40;;;;;;4989303;28;20036;-76
2021/06/05 02:12:00;;;;;;;6.80;5.13;;;21.10;69.60;;;;;;4988601;28;20122;-75
2021/06/05 02:14:34;;;;;;;6.45;5.32;;;21.10;69.60;;;;;;4990050;28;20502;-76
2021/06/05 02:17:01;;;;;;;12.32;5.22;;;21.10;69.60;;;;;;4989087;28;20084;-76
2021/06/05 02:19:31;;;;;;;7.25;4.78;;;21.10;69.30;;;;;;4988965;28;20038;-76
2021/06/05 02:22:00;;;;;;;6.78;5.05;;;21.10;69.20;;;;;;4988805;28;20119;-75
2021/06/05 02:24:30;;;;;;;8.18;5.38;;;21.10;69.30;;;;;;4990082;28;20410;-76
2021/06/05 02:26:59;;;;;;;9.23;5.47;;;21.00;69.30;;;;;;4988906;28;20561;-75
2021/06/05 02:29:29;;;;;;;9.00;5.68;;;21.00;70.00;;;;;;4989215;28;20033;-75
2021/06/05 02:31:56;;;;;;;20.60;7.57;;;21.10;70.60;;;;;;4989147;28;20494;-77
2021/06/05 02:34:29;;;;;;;32.95;7.50;;;21.10;71.30;;;;;;4989837;28;20101;-78
2021/06/05 02:36:58;;;;;;;21.90;7.78;;;21.00;72.10;;;;;;4987422;28;20023;-76
2021/06/05 02:39:24;;;;;;;40.58;8.40;;;21.10;73.60;;;;;;4988736;28;20073;-76
2021/06/05 02:41:52;;;;;;;19.60;7.22;;;21.10;74.00;;;;;;4988723;28;20031;-76
2021/06/05 02:44:24;;;;;;;16.25;7.63;;;21.00;74.00;;;;;;4988535;28;20034;-76
2021/06/05 02:46:50;;;;;;;8.82;7.40;;;21.00;74.20;;;;;;4989015;28;20022;-77
2021/06/05 02:49:18;;;;;;;11.80;7.28;;;21.00;74.20;;;;;;4989034;28;20028;-76
2021/06/05 02:51:54;;;;;;;10.57;8.00;;;20.90;74.20;;;;;;4990648;28;20391;-77
2021/06/05 02:54:22;;;;;;;10.50;7.65;;;20.90;74.40;;;;;;4992214;28;20022;-76
2021/06/05 02:56:49;;;;;;;8.35;7.47;;;20.90;74.70;;;;;;4992104;28;20487;-76
2021/06/05 02:59:14;;;;;;;8.63;7.70;;;20.80;74.70;;;;;;4991862;28;20027;-77
2021/06/05 03:01:40;;;;;;;8.52;7.57;;;20.80;75.30;;;;;;4992674;28;20050;-76
2021/06/05 03:04:06;;;;;;;10.48;7.90;;;20.80;75.40;;;;;;4992172;28;20084;-76
2021/06/05 03:06:32;;;;;;;13.10;7.03;;;20.80;75.30;;;;;;4991679;28;20027;-76
2021/06/05 03:08:58;;;;;;;8.13;7.30;;;20.70;75.30;;;;;;4991886;28;20026;-79
2021/06/05 03:11:26;;;;;;;9.77;8.77;;;20.80;75.70;;;;;;4992633;28;20382;-76
2021/06/05 03:13:52;;;;;;;9.00;8.10;;;20.80;75.90;;;;;;4991792;28;20045;-76
2021/06/05 03:16:19;;;;;;;9.02;8.10;;;20.80;76.30;;;;;;4991215;28;20479;-76
2021/06/05 03:18:45;;;;;;;15.48;8.15;;;20.80;76.20;;;;;;4991490;28;20025;-78
2021/06/05 03:21:17;;;;;;;10.00;8.00;;;20.80;76.10;;;;;;4991393;28;20113;-76
2021/06/05 03:23:45;;;;;;;8.35;7.47;;;20.80;75.80;;;;;;4991400;28;20037;-76
2021/06/05 03:26:12;;;;;;;10.68;7.47;;;20.80;75.70;;;;;;4991874;28;20037;-77
2021/06/05 03:28:38;;;;;;;8.20;7.47;;;20.80;75.40;;;;;;4991610;28;20030;-76
2021/06/05 03:31:04;;;;;;;8.27;7.53;;;20.80;74.70;;;;;;4991829;28;20018;-76
2021/06/05 03:33:30;;;;;;;12.00;7.07;;;20.80;74.70;;;;;;4991725;28;20030;-76
2021/06/05 03:35:56;;;;;;;12.05;7.38;;;20.70;74.60;;;;;;4991169;28;20092;-76
2021/06/05 03:38:25;;;;;;;8.18;6.93;;;20.70;74.80;;;;;;4991623;28;20018;-76
2021/06/05 03:40:52;;;;;;;10.40;7.93;;;20.60;74.70;;;;;;4991886;28;20030;-76
2021/06/05 03:43:18;;;;;;;10.20;7.28;;;20.60;75.10;;;;;;4991315;28;20096;-75
2021/06/05 03:45:44;;;;;;;9.40;7.00;;;20.50;75.40;;;;;;4991173;28;20031;-76
2021/06/05 03:48:10;;;;;;;7.57;6.82;;;20.50;75.10;;;;;;4991339;28;20033;-75
2021/06/05 03:50:46;;;;;;;8.57;7.60;;;20.50;74.70;;;;;;4991764;28;20390;-75
2021/06/05 03:53:13;;;;;;;8.23;7.30;;;20.50;75.00;;;;;;4991358;28;20099;-75
2021/06/05 03:55:39;;;;;;;9.38;8.13;;;20.40;74.90;;;;;;4990385;28;20440;-77
2021/06/05 03:58:06;;;;;;;9.48;8.57;;;20.40;75.10;;;;;;4991412;28;20240;-76
2021/06/05 04:00:36;;;;;;;9.07;8.25;;;20.40;75.60;;;;;;4991197;28;20079;-76
2021/06/05 04:03:03;;;;;;;10.38;7.93;;;20.40;76.00;;;;;;4991726;28;20065;-76
2021/06/05 04:05:29;;;;;;;10.38;7.95;;;20.40;75.90;;;;;;4990632;28;20091;-76
2021/06/05 04:07:55;;;;;;;9.30;8.25;;;20.40;75.70;;;;;;4991349;28;20452;-76
2021/06/05 04:10:22;;;;;;;11.88;7.95;;;20.40;75.80;;;;;;4990865;28;20062;-76
2021/06/05 04:12:49;;;;;;;11.43;8.70;;;20.40;75.70;;;;;;4991540;28;20018;-76
2021/06/05 04:15:16;;;;;;;8.93;8.02;;;20.40;75.40;;;;;;4990240;28;20022;-78
2021/06/05 04:17:42;;;;;;;10.20;8.13;;;20.30;75.40;;;;;;4991270;28;20053;-78
2021/06/05 04:20:11;;;;;;;9.57;7.70;;;20.30;75.50;;;;;;4991405;28;20467;-78
2021/06/05 04:22:36;;;;;;;8.38;6.95;;;20.30;75.80;;;;;;4991065;28;20094;-76
2021/06/05 04:25:03;;;;;;;12.73;7.30;;;20.30;75.60;;;;;;4990424;28;20026;-77
2021/06/05 04:27:29;;;;;;;11.25;7.07;;;20.30;75.30;;;;;;4990110;28;20035;-76
2021/06/05 04:29:55;;;;;;;8.95;7.28;;;20.20;74.80;;;;;;4989896;28;20033;-78
2021/06/05 04:32:20;;;;;;;8.00;7.20;;;20.20;74.80;;;;;;4991532;28;20042;-76
2021/06/05 04:34:46;;;;;;;8.00;7.20;;;20.20;74.80;;;;;;4990122;28;20026;-76
2021/06/05 04:37:13;;;;;;;9.27;6.88;;;20.20;75.20;;;;;;4990464;28;20037;-76
2021/06/05 04:39:40;;;;;;;7.80;7.10;;;20.20;75.10;;;;;;4991132;28;20033;-76
2021/06/05 04:42:07;;;;;;;9.02;7.03;;;20.20;75.10;;;;;;4990280;28;20047;-78
2021/06/05 04:44:33;;;;;;;8.93;6.90;;;20.20;75.30;;;;;;4990997;28;20387;-74
2021/06/05 04:46:59;;;;;;;8.10;7.03;;;20.20;75.30;;;;;;4989982;28;20045;-75
2021/06/05 04:49:25;;;;;;;8.57;7.47;;;20.20;75.50;;;;;;4989482;28;20027;-75
2021/06/05 04:51:50;;;;;;;7.22;6.50;;;20.20;75.60;;;;;;4990927;28;20018;-77
2021/06/05 04:54:16;;;;;;;9.40;7.00;;;20.20;75.50;;;;;;4990725;28;20061;-75
2021/06/05 04:56:49;;;;;;;7.55;6.65;;;20.30;75.30;;;;;;4990844;28;20037;-74
2021/06/05 04:59:17;;;;;;;8.52;6.72;;;20.30;75.10;;;;;;4991070;28;20385;-75
2021/06/05 05:01:43;;;;;;;8.55;7.03;;;20.30;74.90;;;;;;4990500;28;20027;-75
2021/06/05 05:04:09;;;;;;;6.78;6.07;;;20.40;75.00;;;;;;4989556;28;20263;-75
2021/06/05 05:06:35;;;;;;;7.45;6.40;;;20.40;75.00;;;;;;4989759;28;20386;-76
2021/06/05 05:09:01;;;;;;;7.38;6.60;;;20.40;74.40;;;;;;4989924;28;20062;-76
2021/06/05 05:11:27;;;;;;;6.72;5.97;;;20.40;74.30;;;;;;4990018;28;20053;-76
2021/06/05 05:13:53;;;;;;;8.15;6.10;;;20.40;74.60;;;;;;4991708;28;20448;-77
2021/06/05 05:16:19;;;;;;;6.75;6.15;;;20.40;74.50;;;;;;4991372;28;20102;-77
2021/06/05 05:18:47;;;;;;;11.70;6.40;;;20.40;74.80;;;;;;4989662;28;20022;-76
2021/06/05 05:21:18;;;;;;;8.45;6.30;;;20.40;75.00;;;;;;4990122;28;20101;-77
2021/06/05 05:23:44;;;;;;;12.93;6.35;;;20.40;75.20;;;;;;4989308;28;20038;-77
2021/06/05 05:26:11;;;;;;;7.53;6.30;;;20.40;75.30;;;;;;4989420;28;20489;-75
2021/06/05 05:28:38;;;;;;;7.95;6.03;;;20.50;74.80;;;;;;4990729;28;20079;-77
2021/06/05 05:31:10;;;;;;;8.32;5.75;;;20.50;74.00;;;;;;4990839;28;20038;-75
2021/06/05 05:33:39;;;;;;;6.78;5.90;;;20.60;73.60;;;;;;4991300;28;20437;-75
2021/06/05 05:36:08;;;;;;;8.73;6.20;;;20.60;73.00;;;;;;4990966;28;20058;-77
2021/06/05 05:38:37;;;;;;;7.30;6.18;;;20.60;72.40;;;;;;4991031;28;20018;-78
2021/06/05 05:41:04;;;;;;;9.05;5.55;;;20.70;72.60;;;;;;4990268;28;20034;-75
2021/06/05 05:43:29;;;;;;;7.10;5.60;;;20.70;72.30;;;;;;4989555;28;20053;-75
2021/06/05 05:45:55;;;;;;;6.55;5.45;;;20.80;71.80;;;;;;4990230;28;20027;-75
2021/06/05 05:48:21;;;;;;;7.88;6.00;;;20.80;71.70;;;;;;4990882;28;20027;-75
2021/06/05 05:50:46;;;;;;;6.78;5.43;;;20.80;71.70;;;;;;4991113;28;20030;-75
2021/06/05 05:53:13;;;;;;;9.25;6.03;;;20.80;71.60;;;;;;4990545;28;20432;-75
2021/06/05 05:55:39;;;;;;;11.73;5.88;;;20.90;71.90;;;;;;4989297;28;20027;-75
2021/06/05 05:58:17;;;;;;;7.88;5.70;;;20.90;72.30;;;;;;4990409;28;20030;-77
2021/06/05 06:00:45;;;;;;;9.50;5.43;;;21.00;72.20;;;;;;4990460;28;20389;-76
2021/06/05 06:03:12;;;;;;;10.00;5.82;;;21.00;71.30;;;;;;4990166;28;20390;-76
2021/06/05 06:05:38;;;;;;;11.38;5.82;;;21.00;70.80;;;;;;4990522;28;20424;-76
2021/06/05 06:08:09;;;;;;;8.40;5.53;;;21.10;71.00;;;;;;4990330;28;20030;-78
2021/06/05 06:10:35;;;;;;;5.65;4.70;;;21.10;71.50;;;;;;4990420;28;20018;-76
2021/06/05 06:13:02;;;;;;;5.70;5.18;;;21.10;70.90;;;;;;4990235;28;20368;-76
2021/06/05 06:15:29;;;;;;;8.40;5.18;;;21.20;70.40;;;;;;4990200;28;20038;-75
2021/06/05 06:17:55;;;;;;;8.38;4.90;;;21.30;70.20;;;;;;4989997;28;20075;-77
2021/06/05 06:20:30;;;;;;;8.32;5.18;;;21.30;69.30;;;;;;4990222;28;20485;-75
2021/06/05 06:22:56;;;;;;;12.77;5.57;;;21.30;69.00;;;;;;4989942;28;20062;-75
2021/06/05 06:25:25;;;;;;;6.78;5.13;;;21.30;69.00;;;;;;4991764;28;20494;-77
2021/06/05 06:27:51;;;;;;;8.45;5.15;;;21.40;69.20;;;;;;4993560;28;20030;-77
2021/06/05 06:30:21;;;;;;;6.50;4.90;;;21.40;68.70;;;;;;4993378;28;20041;-75
2021/06/05 06:32:51;;;;;;;9.23;5.40;;;21.50;68.30;;;;;;4993591;28;20023;-76
2021/06/05 06:35:21;;;;;;;5.88;4.80;;;21.50;68.70;;;;;;4993668;28;20022;-75
2021/06/05 06:37:47;;;;;;;7.35;4.82;;;21.60;68.30;;;;;;4994040;28;20480;-75
2021/06/05 06:40:13;;;;;;;8.15;4.60;;;21.70;68.90;;;;;;4993545;28;20054;-75
2021/06/05 06:42:39;;;;;;;8.10;4.45;;;21.70;68.00;;;;;;4993439;28;20066;-74
2021/06/05 06:45:06;;;;;;;6.32;4.38;;;21.80;67.10;;;;;;4993571;28;20030;-75
2021/06/05 06:47:32;;;;;;;5.40;4.60;;;21.80;65.70;;;;;;4993567;28;20030;-74
2021/06/05 06:49:58;;;;;;;6.18;4.88;;;21.90;66.10;;;;;;4993566;28;20034;-75
2021/06/05 06:52:25;;;;;;;5.88;4.68;;;21.90;66.10;;;;;;4993573;28;20025;-75
2021/06/05 06:54:52;;;;;;;10.18;4.80;;;21.90;66.30;;;;;;4992210;28;20084;-75
2021/06/05 06:57:18;;;;;;;8.70;4.40;;;22.00;66.60;;;;;;4993533;28;20106;-75
2021/06/05 06:59:43;;;;;;;6.05;4.65;;;22.00;66.60;;;;;;4993467;28;20288;-75
2021/06/05 07:02:10;;;;;;;7.45;4.50;;;22.10;66.40;;;;;;4993046;28;20360;-75
2021/06/05 07:04:36;;;;;;;7.80;4.50;;;22.10;66.70;;;;;;4992016;28;20095;-74
2021/06/05 07:07:01;;;;;;;8.02;4.82;;;22.20;67.00;;;;;;4992625;28;20023;-75
2021/06/05 07:09:27;;;;;;;10.32;4.55;;;22.20;66.80;;;;;;4992714;28;20026;-75
2021/06/05 07:11:53;;;;;;;8.85;4.45;;;22.30;66.50;;;;;;4992776;28;20054;-70
2021/06/05 07:14:18;;;;;;;8.98;5.00;;;22.30;66.30;;;;;;4993249;28;20132;-71
2021/06/05 07:16:44;;;;;;;11.38;4.63;;;22.40;66.90;;;;;;4992593;28;20474;-69
2021/06/05 07:19:10;;;;;;;6.20;4.20;;;22.40;66.80;;;;;;4991647;28;20026;-69
2021/06/05 07:21:36;;;;;;;10.48;4.15;;;22.50;66.80;;;;;;4992177;28;20058;-69
2021/06/05 07:24:03;;;;;;;7.80;4.65;;;22.60;66.70;;;;;;4992728;28;20117;-69
2021/06/05 07:26:29;;;;;;;6.90;4.18;;;22.60;65.90;;;;;;4992338;28;20063;-69
2021/06/05 07:28:58;;;;;;;4.80;4.30;;;22.70;65.30;;;;;;4992088;28;20433;-69
2021/06/05 07:31:33;;;;;;;6.47;4.20;;;22.80;65.00;;;;;;4991798;28;20505;-69
2021/06/05 07:33:59;;;;;;;5.75;4.38;;;22.80;64.80;;;;;;4992035;28;20398;-69
2021/06/05 07:36:37;;;;;;;4.82;3.95;;;22.90;65.00;;;;;;4992674;28;20027;-69
2021/06/05 07:39:05;;;;;;;6.45;4.05;;;22.90;64.30;;;;;;4992752;28;20058;-69
2021/06/05 07:41:31;;;;;;;4.22;3.67;;;23.00;63.30;;;;;;4992760;28;20018;-69
2021/06/05 07:43:57;;;;;;;4.75;3.90;;;23.00;62.80;;;;;;4991507;28;20050;-69
2021/06/05 07:46:23;;;;;;;6.60;3.80;;;23.10;62.70;;;;;;4992911;28;20433;-69
2021/06/05 07:48:49;;;;;;;7.43;4.03;;;23.10;62.60;;;;;;4992935;28;20109;-69
2021/06/05 07:51:15;;;;;;;11.98;4.78;;;23.20;62.20;;;;;;4992625;28;20378;-69
2021/06/05 07:53:43;;;;;;;7.28;4.63;;;23.20;60.20;;;;;;4992682;28;20034;-69
2021/06/05 07:56:09;;;;;;;5.05;3.70;;;23.30;61.10;;;;;;4991897;28;20022;-70
2021/06/05 07:58:35;;;;;;;7.35;4.03;;;23.30;61.30;;;;;;4992401;28;20109;-81
2021/06/05 08:01:04;;;;;;;7.72;4.05;;;23.40;61.70;;;;;;4992409;28;20026;-69
2021/06/05 08:03:31;;;;;;;5.95;3.90;;;23.50;62.20;;;;;;4992308;28;20061;-71
2021/06/05 08:05:57;;;;;;;6.45;3.88;;;23.50;62.40;;;;;;4992410;28;20022;-70
2021/06/05 08:08:26;;;;;;;7.38;4.40;;;23.60;62.80;;;;;;4992172;28;20065;-70
2021/06/05 08:10:53;;;;;;;9.27;4.38;;;23.70;62.50;;;;;;4992565;28;20109;-70
2021/06/05 08:13:20;;;;;;;7.40;4.05;;;23.70;62.60;;;;;;4992549;28;20510;-70
2021/06/05 08:15:49;;;;;;;10.38;4.07;;;23.80;62.60;;;;;;4992369;28;20022;-70
2021/06/05 08:18:19;;;;;;;5.93;4.80;;;23.80;63.70;;;;;;4992012;28;20136;-70
2021/06/05 08:21:07;;;;;;;5.45;4.40;;;23.90;62.50;;;;;;4992156;28;20018;-70
2021/06/05 08:23:35;;;;;;;9.10;4.75;;;24.00;62.80;;;;;;4992026;28;20084;-72
2021/06/05 08:26:02;;;;;;;10.13;4.50;;;24.00;63.60;;;;;;4990856;28;20079;-70
2021/06/05 08:28:29;;;;;;;8.65;5.38;;;24.10;62.90;;;;;;4991984;28;20022;-70
2021/06/05 08:30:58;;;;;;;8.73;4.68;;;24.10;62.80;;;;;;4991665;28;20498;-70
2021/06/05 08:33:24;;;;;;;6.30;4.90;;;24.20;62.90;;;;;;4992561;28;20030;-70
2021/06/05 08:35:51;;;;;;;73.45;7.10;;;24.20;62.90;;;;;;4992268;28;20071;-69
2021/06/05 08:38:19;;;;;;;16.80;3.92;;;24.30;62.50;;;;;;4991771;28;20022;-70
2021/06/05 08:40:48;;;;;;;5.22;3.63;;;24.30;56.00;;;;;;4992054;28;20023;-69
2021/06/05 08:43:27;;;;;;;11.13;4.63;;;24.40;56.80;;;;;;4991706;28;20490;-69
2021/06/05 08:45:53;;;;;;;5.85;3.70;;;24.50;55.90;;;;;;4991785;28;20030;-70
2021/06/05 08:48:21;;;;;;;12.40;3.80;;;24.50;54.50;;;;;;4991048;28;20037;-70
2021/06/05 08:50:47;;;;;;;7.05;3.42;;;24.60;55.80;;;;;;4991729;28;20023;-69
2021/06/05 08:53:23;;;;;;;5.60;3.30;;;24.60;54.30;;;;;;4991738;28;20023;-69
2021/06/05 08:55:53;;;;;;;8.27;3.15;;;24.60;55.00;;;;;;4991458;28;20023;-70
2021/06/05 08:58:48;;;;;;;8.18;3.20;;;24.70;54.10;;;;;;4991845;28;20040;-71
2021/06/05 09:01:29;;;;;;;26.05;3.80;;;24.80;52.20;;;;;;4991569;28;20390;-70
2021/06/05 09:04:03;;;;;;;7.15;2.90;;;24.80;51.30;;;;;;4991277;28;20045;-70
2021/06/05 09:06:53;;;;;;;4.90;3.00;;;24.80;53.60;;;;;;4991025;28;20034;-70
2021/06/05 09:09:25;;;;;;;8.15;3.22;;;24.90;52.30;;;;;;4989888;28;20034;-69
2021/06/05 09:11:53;;;;;;;4.32;3.05;;;25.00;55.70;;;;;;4989911;28;20103;-70
2021/06/05 09:14:20;;;;;;;6.13;2.40;;;25.00;54.20;;;;;;4990921;28;20139;-70
2021/06/05 09:16:49;;;;;;;5.35;2.80;;;25.10;52.40;;;;;;4990870;28;20552;-69
2021/06/05 09:19:27;;;;;;;7.20;2.65;;;25.20;53.40;;;;;;4991166;28;20026;-69
2021/06/05 09:22:05;;;;;;;5.88;2.75;;;25.20;52.50;;;;;;4991225;28;20026;-69
2021/06/05 09:24:48;;;;;;;5.70;2.95;;;25.30;51.50;;;;;;4990022;28;20053;-69
2021/06/05 09:27:23;;;;;;;7.50;2.40;;;25.40;53.70;;;;;;4991128;28;20026;-69
2021/06/05 09:29:53;;;;;;;7.47;2.55;;;25.40;51.20;;;;;;4990668;28;20094;-70
2021/06/05 09:32:33;;;;;;;9.77;2.22;;;25.40;52.80;;;;;;4991022;28;20029;-69
2021/06/05 09:35:10;;;;;;;4.03;2.20;;;25.50;49.50;;;;;;4991151;28;20414;-69
2021/06/05 09:37:43;;;;;;;3.97;2.20;;;25.60;49.70;;;;;;4990976;28;20023;-68
2021/06/05 09:40:31;;;;;;;4.22;2.13;;;25.60;50.50;;;;;;4990739;28;20026;-69
2021/06/05 09:43:16;;;;;;;3.90;2.05;;;25.60;50.80;;;;;;4990716;28;20049;-83
2021/06/05 09:46:02;;;;;;;3.88;2.10;;;25.70;49.30;;;;;;4990693;28;20081;-69
2021/06/05 09:48:39;;;;;;;4.78;2.15;;;25.80;48.80;;;;;;4990617;28;20022;-69
2021/06/05 09:51:37;;;;;;;4.65;2.25;;;25.80;48.10;;;;;;4990894;28;20470;-69
2021/06/05 09:54:08;;;;;;;3.42;2.08;;;25.80;48.00;;;;;;4990810;28;20034;-68
2021/06/05 09:56:48;;;;;;;7.43;2.40;;;25.90;46.30;;;;;;4990663;28;20036;-68
2021/06/05 09:59:17;;;;;;;4.30;1.90;;;25.90;48.00;;;;;;4990812;28;20023;-69
2021/06/05 10:02:09;;;;;;;4.93;2.30;;;26.00;48.30;;;;;;4994324;28;20094;-69
2021/06/05 10:04:41;;;;;;;6.70;2.20;;;26.10;48.60;;;;;;4993017;28;20042;-69
2021/06/05 10:07:27;;;;;;;;;;;26.10;48.00;;;;;;4994738;28;20034;-69
2021/06/05 10:10:25;;;;;;;3.88;2.55;;;26.20;47.20;;;;;;4993976;28;19910;-69
2021/06/05 10:12:53;;;;;;;3.22;2.28;;;26.30;49.90;;;;;;4993748;28;20023;-70
2021/06/05 10:15:27;;;;;;;3.00;2.13;;;26.30;50.10;;;;;;4993804;28;20031;-69
2021/06/05 10:18:00;;;;;;;6.40;2.28;;;26.40;49.70;;;;;;4994021;28;20031;-69
2021/06/05 10:20:45;;;;;;;5.57;2.10;;;26.40;47.90;;;;;;4994123;28;20065;-68
2021/06/05 10:23:17;;;;;;;4.70;2.30;;;26.40;46.80;;;;;;4993828;28;20030;-69
2021/06/05 10:25:48;;;;;;;5.28;2.25;;;26.40;48.30;;;;;;4993525;28;20087;-69
2021/06/05 10:28:25;;;;;;;5.15;2.00;;;26.40;49.00;;;;;;4993845;28;20030;-69
2021/06/05 10:31:03;;;;;;;4.97;2.38;;;26.50;49.40;;;;;;4994039;28;20027;-68
2021/06/05 10:33:43;;;;;;;6.40;2.20;;;26.60;48.60;;;;;;4993665;28;20030;-69
2021/06/05 10:36:25;;;;;;;10.90;2.22;;;26.60;49.10;;;;;;4993572;28;20108;-69
2021/06/05 10:38:57;;;;;;;7.47;2.40;;;26.60;48.30;;;;;;4993555;28;20030;-70
2021/06/05 10:41:27;;;;;;;7.25;2.00;;;26.70;48.60;;;;;;4994030;28;20030;-68
2021/06/05 10:43:59;;;;;;;4.47;2.35;;;26.80;46.90;;;;;;4993054;28;20057;-69
2021/06/05 10:46:45;;;;;;;3.85;2.15;;;26.80;45.70;;;;;;4992353;28;20026;-71
2021/06/05 10:49:41;;;;;;;4.93;2.00;;;26.80;47.40;;;;;;4993082;28;20015;-69
2021/06/05 10:52:30;;;;;;;4.38;2.38;;;26.90;49.40;;;;;;4993402;28;20479;-70
2021/06/05 10:55:19;;;;;;;4.88;1.90;;;27.00;49.60;;;;;;4993284;28;20470;-70
2021/06/05 10:58:10;;;;;;;8.18;2.00;;;27.00;46.10;;;;;;4992064;28;20034;-70
2021/06/05 11:00:42;;;;;;;4.43;1.95;;;26.90;47.10;;;;;;4993059;28;20109;-69
2021/06/05 11:03:24;;;;;;;6.10;2.05;;;26.90;45.00;;;;;;4993372;28;20038;-71
2021/06/05 11:06:10;;;;;;;4.78;1.90;;;26.80;47.40;;;;;;4991179;28;20085;-80
2021/06/05 11:08:49;;;;;;;6.20;2.05;;;26.80;47.20;;;;;;4991047;28;20030;-70
2021/06/05 11:11:44;;;;;;;10.45;2.50;;;26.90;45.70;;;;;;4992498;28;20037;-69
2021/06/05 11:14:23;;;;;;;6.57;2.05;;;26.90;45.10;;;;;;4992974;28;20105;-71
2021/06/05 11:16:58;;;;;;;4.57;2.10;;;26.90;43.80;;;;;;4993040;28;20031;-71
2021/06/05 11:19:53;;;;;;;7.22;2.08;;;26.80;46.30;;;;;;4993048;28;20035;-71
2021/06/05 11:22:22;;;;;;;4.93;2.15;;;26.90;46.00;;;;;;4991431;28;20539;-71
2021/06/05 11:25:07;;;;;;;5.25;2.20;;;;;;;;;;4992744;28;20030;-70
2021/06/05 11:27:36;;;;;;;5.25;2.40;;;;;;;;;;4993051;28;20388;-70
2021/06/05 11:30:08;;;;;;;2.97;2.17;;;;;;;;;;4992434;28;20031;-70
2021/06/05 11:32:35;;;;;;;3.63;2.22;;;;;;;;;;4992890;28;20026;-71
2021/06/05 11:35:03;;;;;;;8.98;2.55;;;;;;;;;;4992747;28;20023;-70
2021/06/05 11:37:51;;;;;;;8.52;2.28;;;;;;;;;;4992860;28;20104;-71
2021/06/05 11:40:37;;;;;;;6.57;2.45;;;;;;;;;;4991325;28;20030;-70
2021/06/05 11:43:04;;;;;;;2.88;2.00;;;;;;;;;;4992444;28;20596;-73
2021/06/05 11:45:35;;;;;;;8.98;2.45;;;;;;;;;;4991546;28;20037;-72
2021/06/05 11:48:01;;;;;;;5.23;2.63;;;;;;;;;;4992718;28;20042;-83
2021/06/05 11:50:32;;;;;;;5.20;2.00;;;;;;;;;;4992582;28;20022;-72
2021/06/05 11:53:17;;;;;;;4.95;1.98;;;;;;;;;;4992376;28;20372;-69
2021/06/05 11:55:45;;;;;;;7.00;2.67;;;;;;;;;;4997991;28;20114;-70
2021/06/05 11:58:16;;;;;;;4.63;2.03;;;;;;;;;;5001326;28;20022;-80
2021/06/05 12:01:02;;;;;;;4.72;2.30;;;;;;;;;;5008884;28;20108;-70
2021/06/05 12:03:34;;;;;;;3.45;2.33;;;;;;;;;;5011652;28;20042;-70
2021/06/05 12:06:09;;;;;;;5.28;2.60;;;;;;;;;;5011859;28;20126;-69
2021/06/05 12:08:37;;;;;;;8.65;2.47;;;;;;;;;;5011790;28;20034;-70
2021/06/05 12:11:15;;;;;;;6.60;2.30;;;;;;;;;;5012006;28;20049;-70
2021/06/05 12:13:43;;;;;;;7.00;2.65;;;;;;;;;;5011705;28;20026;-70
2021/06/05 12:16:14;;;;;;;4.20;2.53;;;;;;;;;;5011691;28;20056;-70
2021/06/05 12:18:46;;;;;;;6.90;2.30;;;;;;;;;;5009098;28;20026;-71
2021/06/05 12:21:31;;;;;;;5.10;2.35;;;;;;;;;;5008793;28;20026;-68
2021/06/05 12:23:58;;;;;;;9.00;2.65;;;;;;;;;;5007938;28;20064;-70
2021/06/05 12:26:27;;;;;;;9.00;2.55;;;;;;;;;;5010017;28;20490;-70
2021/06/05 12:29:07;;;;;;;3.00;2.67;;;;;;;;;;5009032;28;20109;-70
2021/06/05 12:31:36;;;;;;;6.57;2.85;;;;;;;;;;5007908;28;20040;-70
2021/06/05 12:34:07;;;;;;;6.28;2.67;;;;;;;;;;4990425;28;20053;-69
2021/06/05 12:36:35;;;;;;;12.73;2.60;;;;;;;;;;4991314;28;20022;-69
2021/06/05 12:39:22;;;;;;;7.38;2.80;;;;;;;;;;4991724;28;20018;-69
2021/06/05 12:41:49;;;;;;;10.57;2.85;;;;;;;;;;4990156;28;20178;-69
2021/06/05 12:44:17;;;;;;;7.30;2.40;;;;;;;;;;4988268;28;20046;-70
2021/06/05 12:46:43;;;;;;;5.40;2.60;;;;;;;;;;4987440;28;20172;-70
2021/06/05 12:49:10;;;;;;;7.50;3.05;;;;;;;;;;4989688;28;20037;-73
2021/06/05 12:51:43;;;;;;;9.27;2.95;;;;;;;;;;4990815;28;20363;-70
2021/06/05 12:54:11;;;;;;;8.90;2.72;;;;;;;;;;4990895;28;20379;-71
2021/06/05 12:56:40;;;;;;;8.13;3.00;;;;;;;;;;4988831;28;20027;-71
2021/06/05 12:59:08;;;;;;;5.25;2.13;;;;;;;;;;4988013;28;20037;-70
2021/06/05 13:01:34;;;;;;;3.40;2.20;;;;;;;;;;4988238;28;20034;-70
2021/06/05 13:04:01;;;;;;;5.50;2.60;;;;;;;;;;4989924;28;20038;-71
2021/06/05 13:06:30;;;;;;;9.25;2.40;;;;;;;;;;4990326;28;20541;-69
2021/06/05 13:09:15;;;;;;;5.20;2.20;;;;;;;;;;4989980;28;20027;-70
2021/06/05 13:11:46;;;;;;;10.63;3.28;;;;;;;;;;4990658;28;20102;-69
2021/06/05 13:14:18;;;;;;;6.13;2.50;;;;;;;;;;4990965;28;20034;-71
2021/06/05 13:16:49;;;;;;;6.85;2.10;;;;;;;;;;4991156;28;20365;-71